Time;durP1;ratioP1;P1;durP2;ratioP2;P2;SDS_P1;SDS_P2;PMS_P1;PMS_P2;Temp;Humidity;BMP_temperature;BMP_pressure;BME280_temperature;BME280_humidity;BME280_pressure;Samples;Min_cycle;Max_cycle;Signal;HPM_P1;HPM_P2
2023/09/23 00:01:26;;;;;;;56.53;2.30;;;;;;;;;;5134402;27;20445;-70
2023/09/23 00:03:53;;;;;;;56.37;2.20;;;;;;;;;;5134158;27;20948;-71
2023/09/23 00:06:20;;;;;;;56.37;2.40;;;;;;;;;;5134572;27;20455;-71
2023/09/23 00:08:48;;;;;;;56.70;2.40;;;;;;;;;;5134207;27;21008;-71
2023/09/23 00:11:15;;;;;;;56.43;2.20;;;;;;;;;;5134182;27;20449;-70
2023/09/23 00:13:43;;;;;;;56.53;2.50;;;;;;;;;;5134265;27;20939;-70
2023/09/23 00:16:15;;;;;;;56.47;2.10;;;;;;;;;;5133846;27;20520;-71
2023/09/23 00:18:43;;;;;;;56.37;2.40;;;;;;;;;;5133631;27;20988;-70
2023/09/23 00:21:11;;;;;;;56.23;2.17;;;;;;;;;;5134030;27;20456;-71
2023/09/23 00:23:38;;;;;;;56.47;2.00;;;;;;;;;;5134037;27;20445;-70
2023/09/23 00:26:06;;;;;;;56.60;2.30;;;;;;;;;;5133879;27;20451;-70
2023/09/23 00:28:34;;;;;;;56.40;2.20;;;;;;;;;;5133414;27;20979;-68
2023/09/23 00:31:10;;;;;;;56.50;2.07;;;;;;;;;;5133701;27;20783;-70
2023/09/23 00:33:38;;;;;;;56.40;2.07;;;;;;;;;;5134117;27;20528;-69
2023/09/23 00:36:07;;;;;;;56.47;2.00;;;;;;;;;;5133583;27;20501;-69
2023/09/23 00:38:34;;;;;;;56.47;2.30;;;;;;;;;;5133312;27;20484;-70
2023/09/23 00:41:01;;;;;;;56.33;2.17;;;;;;;;;;5133573;27;20448;-70
2023/09/23 00:43:28;;;;;;;56.43;2.20;;;;;;;;;;5133568;27;20458;-70
2023/09/23 00:45:56;;;;;;;56.27;2.00;;;;;;;;;;5133988;27;20815;-70
2023/09/23 00:48:24;;;;;;;56.37;2.10;;;;;;;;;;5133020;27;20845;-70
2023/09/23 00:50:52;;;;;;;56.37;2.03;;;;;;;;;;5133117;27;20567;-69
2023/09/23 00:53:20;;;;;;;56.40;2.13;;;;;;;;;;5133386;27;20823;-70
2023/09/23 00:55:52;;;;;;;56.70;2.47;;;;;;;;;;5132799;27;20441;-69
2023/09/23 00:58:21;;;;;;;56.30;2.17;;;;;;;;;;5133142;27;20511;-69
2023/09/23 01:00:48;;;;;;;56.30;2.10;;;;;;;;;;5133358;27;20528;-70
2023/09/23 01:03:16;;;;;;;56.27;2.17;;;;;;;;;;5133073;27;20449;-70
2023/09/23 01:05:45;;;;;;;56.33;2.20;;;;;;;;;;5133121;27;20535;-70
2023/09/23 01:08:13;;;;;;;56.50;2.00;;;;;;;;;;5132603;27;20471;-70
2023/09/23 01:10:40;;;;;;;56.50;2.27;;;;;;;;;;5133096;27;20965;-70
2023/09/23 01:13:16;;;;;;;56.63;2.27;;;;;;;;;;5133110;27;20445;-70
2023/09/23 01:15:46;;;;;;;56.50;2.43;;;;;;;;;;5133051;27;20451;-70
2023/09/23 01:18:14;;;;;;;56.57;2.30;;;;;;;;;;5132760;27;20490;-69
2023/09/23 01:20:42;;;;;;;56.57;2.47;;;;;;;;;;5132807;27;20444;-69
2023/09/23 01:23:11;;;;;;;56.50;2.33;;;;;;;;;;5132629;27;20478;-70
2023/09/23 01:25:39;;;;;;;56.47;2.50;;;;;;;;;;5132094;27;20478;-70
2023/09/23 01:28:08;;;;;;;56.77;2.60;;;;;;;;;;5132272;27;20467;-69
2023/09/23 01:30:35;;;;;;;56.50;2.40;;;;;;;;;;5132392;27;20480;-70
2023/09/23 01:33:04;;;;;;;56.43;2.37;;;;;;;;;;5132738;27;20441;-70
2023/09/23 01:35:32;;;;;;;56.70;2.30;;;;;;;;;;5132407;27;20540;-70
2023/09/23 01:37:59;;;;;;;56.67;2.20;;;;;;;;;;5132245;27;20484;-70
2023/09/23 01:40:29;;;;;;;56.50;2.13;;;;;;;;;;5132186;27;20441;-70
2023/09/23 01:42:57;;;;;;;56.57;2.40;;;;;;;;;;5132372;27;20829;-69
2023/09/23 01:45:25;;;;;;;56.10;2.30;;;;;;;;;;5132601;27;20449;-70
2023/09/23 01:47:56;;;;;;;56.57;2.27;;;;;;;;;;5132108;27;20473;-71
2023/09/23 01:50:24;;;;;;;56.70;2.30;;;;;;;;;;5132245;27;20560;-71
2023/09/23 01:52:51;;;;;;;56.67;2.30;;;;;;;;;;5132318;27;20503;-70
2023/09/23 01:55:18;;;;;;;56.57;2.40;;;;;;;;;;5131784;27;20831;-69
2023/09/23 01:57:48;;;;;;;56.60;2.70;;;;;;;;;;5131996;27;20496;-68
2023/09/23 02:00:17;;;;;;;56.50;2.20;;;;;;;;;;5132197;27;20490;-69
2023/09/23 02:02:44;;;;;;;56.33;2.03;;;;;;;;;;5132105;27;20932;-69
2023/09/23 02:05:12;;;;;;;56.57;2.23;;;;;;;;;;5131826;27;20452;-70
2023/09/23 02:07:41;;;;;;;56.27;2.27;;;;;;;;;;5131013;27;20828;-70
2023/09/23 02:10:09;;;;;;;56.37;2.23;;;;;;;;;;5131321;27;20452;-70
2023/09/23 02:12:36;;;;;;;57.47;2.60;;;;;;;;;;5131965;27;20448;-70
2023/09/23 02:15:06;;;;;;;56.77;2.40;;;;;;;;;;5131764;27;20441;-70
2023/09/23 02:17:35;;;;;;;56.87;2.53;;;;;;;;;;5131881;27;20825;-70
2023/09/23 02:20:03;;;;;;;56.87;2.50;;;;;;;;;;5131802;27;20457;-70
2023/09/23 02:22:31;;;;;;;56.37;2.10;;;;;;;;;;5131565;27;20448;-70
2023/09/23 02:24:58;;;;;;;56.47;2.20;;;;;;;;;;5131787;27;20944;-70
2023/09/23 02:27:26;;;;;;;56.37;2.30;;;;;;;;;;5131711;27;20551;-70
2023/09/23 02:29:53;;;;;;;56.57;2.40;;;;;;;;;;5131686;27;20941;-70
2023/09/23 02:32:21;;;;;;;56.53;2.27;;;;;;;;;;5131819;27;20478;-70
2023/09/23 02:34:48;;;;;;;56.13;2.37;;;;;;;;;;5131636;27;20445;-70
2023/09/23 02:37:17;;;;;;;56.40;2.50;;;;;;;;;;5131510;27;20832;-70
2023/09/23 02:39:45;;;;;;;56.57;2.17;;;;;;;;;;5131532;27;20445;-70
2023/09/23 02:42:12;;;;;;;56.37;2.20;;;;;;;;;;5131541;27;20449;-69
2023/09/23 02:44:39;;;;;;;56.50;2.13;;;;;;;;;;5131673;27;20531;-70
2023/09/23 02:47:06;;;;;;;56.53;2.30;;;;;;;;;;5131525;27;20464;-70
2023/09/23 02:49:35;;;;;;;56.47;2.23;;;;;;;;;;5131053;27;20444;-69
2023/09/23 02:52:02;;;;;;;56.47;2.00;;;;;;;;;;5132006;27;20481;-70
2023/09/23 02:54:29;;;;;;;56.47;2.10;;;;;;;;;;5131647;27;20510;-70
2023/09/23 02:56:56;;;;;;;56.43;2.10;;;;;;;;;;5131555;27;20893;-70
2023/09/23 02:59:26;;;;;;;56.47;2.40;;;;;;;;;;5131160;27;20503;-71
2023/09/23 03:01:53;;;;;;;56.77;2.80;;;;;;;;;;5131452;27;20959;-70
2023/09/23 03:04:23;;;;;;;56.60;2.30;;;;;;;;;;5131669;27;20451;-70
2023/09/23 03:06:55;;;;;;;56.47;2.20;;;;;;;;;;5131194;27;21000;-70
2023/09/23 03:09:23;;;;;;;56.50;2.30;;;;;;;;;;5131215;27;20437;-71
2023/09/23 03:11:53;;;;;;;56.60;2.13;;;;;;;;;;5131489;27;20477;-70
2023/09/23 03:14:23;;;;;;;56.60;2.43;;;;;;;;;;5131334;27;20441;-70
2023/09/23 03:16:51;;;;;;;56.60;2.57;;;;;;;;;;5131194;27;20801;-70
2023/09/23 03:19:24;;;;;;;56.60;2.20;;;;;;;;;;5132826;27;21007;-70
2023/09/23 03:21:54;;;;;;;56.67;2.50;;;;;;;;;;5135292;27;20447;-71
2023/09/23 03:24:22;;;;;;;56.70;2.30;;;;;;;;;;5135142;27;20453;-70
2023/09/23 03:26:50;;;;;;;56.47;2.50;;;;;;;;;;5134924;27;20461;-71
2023/09/23 03:29:18;;;;;;;56.57;2.40;;;;;;;;;;5135017;27;20444;-70
2023/09/23 03:31:45;;;;;;;56.50;2.30;;;;;;;;;;5134824;27;20969;-71
2023/09/23 03:34:14;;;;;;;56.50;2.37;;;;;;;;;;5135090;27;20445;-70
2023/09/23 03:36:41;;;;;;;56.57;2.33;;;;;;;;;;5134783;27;20893;-70
2023/09/23 03:39:10;;;;;;;56.77;2.50;;;;;;;;;;5135287;27;20483;-71
2023/09/23 03:41:37;;;;;;;56.47;2.40;;;;;;;;;;5126327;27;20443;-70
2023/09/23 03:44:05;;;;;;;56.10;2.30;;;;;;;;;;5134981;27;20505;-68
2023/09/23 03:46:33;;;;;;;56.27;2.30;;;;;;;;;;5134603;27;20459;-70
2023/09/23 03:49:01;;;;;;;56.77;2.40;;;;;;;;;;5134608;27;20444;-68
2023/09/23 03:51:28;;;;;;;57.27;2.77;;;;;;;;;;5134399;27;20482;-71
2023/09/23 03:53:56;;;;;;;56.83;2.53;;;;;;;;;;5134583;27;20800;-69
2023/09/23 03:56:27;;;;;;;56.63;2.47;;;;;;;;;;5134354;27;20460;-69
2023/09/23 03:58:55;;;;;;;56.47;2.30;;;;;;;;;;5134349;27;20918;-69
2023/09/23 04:01:24;;;;;;;56.67;2.53;;;;;;;;;;5134424;27;20977;-69
2023/09/23 04:03:52;;;;;;;56.67;2.50;;;;;;;;;;5134439;27;20444;-70
2023/09/23 04:06:19;;;;;;;56.57;2.60;;;;;;;;;;5134228;27;20485;-69
2023/09/23 04:08:47;;;;;;;56.43;2.40;;;;;;;;;;5134012;27;20460;-70
2023/09/23 04:11:15;;;;;;;56.13;2.40;;;;;;;;;;5134178;27;20453;-70
2023/09/23 04:13:44;;;;;;;56.47;2.50;;;;;;;;;;5134090;27;20892;-70
2023/09/23 04:16:12;;;;;;;56.57;2.33;;;;;;;;;;5134178;27;20548;-70
2023/09/23 04:18:40;;;;;;;56.37;2.37;;;;;;;;;;5125379;27;20484;-70
2023/09/23 04:21:08;;;;;;;56.00;2.40;;;;;;;;;;5133912;27;20449;-70
2023/09/23 04:23:35;;;;;;;55.87;2.40;;;;;;;;;;5134179;27;20935;-70
2023/09/23 04:26:03;;;;;;;56.90;2.40;;;;;;;;;;5133840;27;20928;-69
2023/09/23 04:28:31;;;;;;;56.47;2.50;;;;;;;;;;5133539;27;20492;-69
2023/09/23 04:30:59;;;;;;;56.47;2.30;;;;;;;;;;5132985;27;20955;-70
2023/09/23 04:33:27;;;;;;;56.97;2.60;;;;;;;;;;5133704;27;20455;-69
2023/09/23 04:35:56;;;;;;;56.90;2.50;;;;;;;;;;5133506;27;20543;-70
2023/09/23 04:38:24;;;;;;;56.90;2.80;;;;;;;;;;5133231;27;20520;-70
2023/09/23 04:40:51;;;;;;;56.63;2.43;;;;;;;;;;5133871;27;20470;-70
2023/09/23 04:43:19;;;;;;;56.23;2.57;;;;;;;;;;5133464;27;20470;-70
2023/09/23 04:45:48;;;;;;;56.57;2.40;;;;;;;;;;5133357;27;20449;-70
2023/09/23 04:48:18;;;;;;;56.50;2.50;;;;;;;;;;5132855;27;20552;-70
2023/09/23 04:50:46;;;;;;;56.57;2.37;;;;;;;;;;5133321;27;20563;-71
2023/09/23 04:53:13;;;;;;;56.57;2.40;;;;;;;;;;5133122;27;20445;-71
2023/09/23 04:55:41;;;;;;;56.63;2.50;;;;;;;;;;5124922;27;20556;-69
2023/09/23 04:58:09;;;;;;;56.70;2.70;;;;;;;;;;5132600;27;20998;-69
2023/09/23 05:00:36;;;;;;;56.40;2.50;;;;;;;;;;5133055;27;20510;-69
2023/09/23 05:03:04;;;;;;;56.67;2.40;;;;;;;;;;5133522;27;20850;-69
2023/09/23 05:05:32;;;;;;;56.27;2.40;;;;;;;;;;5133037;27;20448;-69
2023/09/23 05:07:59;;;;;;;56.53;2.50;;;;;;;;;;5132881;27;20469;-69
2023/09/23 05:10:28;;;;;;;56.37;2.47;;;;;;;;;;5133383;27;20797;-69
2023/09/23 05:12:56;;;;;;;56.17;2.60;;;;;;;;;;5132968;27;20498;-69
2023/09/23 05:15:24;;;;;;;56.07;2.30;;;;;;;;;;5132794;27;20740;-69
2023/09/23 05:17:52;;;;;;;56.43;2.30;;;;;;;;;;5132651;27;20464;-70
2023/09/23 05:20:20;;;;;;;55.97;2.50;;;;;;;;;;5132597;27;20484;-70
2023/09/23 05:22:48;;;;;;;57.40;2.80;;;;;;;;;;5132765;27;20559;-70
2023/09/23 05:25:16;;;;;;;56.57;2.57;;;;;;;;;;5132772;27;20456;-71
2023/09/23 05:27:43;;;;;;;56.77;2.57;;;;;;;;;;5123980;27;20460;-70
2023/09/23 05:30:12;;;;;;;56.83;2.40;;;;;;;;;;5132630;27;20445;-70
2023/09/23 05:32:39;;;;;;;56.90;2.60;;;;;;;;;;5132608;27;20436;-70
2023/09/23 05:35:09;;;;;;;56.80;2.50;;;;;;;;;;5132418;27;20443;-70
2023/09/23 05:37:36;;;;;;;56.37;2.40;;;;;;;;;;5132579;27;20472;-70
2023/09/23 05:40:21;;;;;;;56.70;2.63;;;;;;;;;;5132697;27;20507;-70
2023/09/23 05:42:48;;;;;;;56.80;2.60;;;;;;;;;;5132583;27;20449;-70
2023/09/23 05:45:15;;;;;;;55.97;2.50;;;;;;;;;;5132399;27;20448;-70
2023/09/23 05:47:44;;;;;;;56.20;2.43;;;;;;;;;;5132181;27;20467;-70
2023/09/23 05:50:11;;;;;;;56.23;2.43;;;;;;;;;;5132063;27;20453;-70
2023/09/23 05:52:39;;;;;;;56.80;2.43;;;;;;;;;;5132176;27;20452;-71
2023/09/23 05:55:08;;;;;;;56.07;2.33;;;;;;;;;;5132224;27;20979;-70
2023/09/23 05:57:35;;;;;;;56.13;2.50;;;;;;;;;;5131694;27;20468;-70
2023/09/23 06:00:05;;;;;;;56.80;2.30;;;;;;;;;;5132122;27;20548;-71
2023/09/23 06:02:32;;;;;;;56.07;2.27;;;;;;;;;;5131870;27;20440;-71
2023/09/23 06:05:01;;;;;;;55.87;2.20;;;;;;;;;;5131728;27;20445;-71
2023/09/23 06:07:28;;;;;;;56.47;2.50;;;;;;;;;;5131624;27;20500;-69
2023/09/23 06:09:55;;;;;;;56.03;2.20;;;;;;;;;;5131532;27;20442;-69
2023/09/23 06:12:24;;;;;;;56.70;2.50;;;;;;;;;;5132288;27;20449;-69
2023/09/23 06:14:53;;;;;;;56.70;2.50;;;;;;;;;;5131653;27;20445;-69
2023/09/23 06:17:20;;;;;;;56.67;2.57;;;;;;;;;;5131743;27;21010;-69
2023/09/23 06:19:48;;;;;;;57.50;2.40;;;;;;;;;;5131504;27;20483;-70
2023/09/23 06:22:15;;;;;;;56.60;2.30;;;;;;;;;;5131949;27;20449;-69
2023/09/23 06:24:42;;;;;;;56.53;2.43;;;;;;;;;;5131717;27;20436;-69
2023/09/23 06:27:09;;;;;;;56.50;2.40;;;;;;;;;;5131489;27;20979;-70
2023/09/23 06:29:37;;;;;;;56.37;2.33;;;;;;;;;;5131587;27;20816;-69
2023/09/23 06:32:05;;;;;;;56.23;2.30;;;;;;;;;;5131764;27;20445;-69
2023/09/23 06:34:32;;;;;;;55.97;2.13;;;;;;;;;;5131699;27;20445;-70
2023/09/23 06:36:59;;;;;;;56.37;2.27;;;;;;;;;;5131651;27;20465;-69
2023/09/23 06:39:26;;;;;;;56.40;2.23;;;;;;;;;;5131507;27;20496;-70
2023/09/23 06:41:54;;;;;;;56.27;2.40;;;;;;;;;;5131837;27;20529;-69
2023/09/23 06:44:21;;;;;;;56.90;2.47;;;;;;;;;;5131503;27;20437;-70
2023/09/23 06:46:50;;;;;;;56.17;2.20;;;;;;;;;;5130956;27;20467;-70
2023/09/23 06:49:17;;;;;;;56.40;2.07;;;;;;;;;;5131150;27;20448;-70
2023/09/23 06:51:44;;;;;;;56.30;2.30;;;;;;;;;;5131336;27;20444;-70
2023/09/23 06:54:11;;;;;;;55.97;2.20;;;;;;;;;;5133171;27;20453;-70
2023/09/23 06:56:38;;;;;;;56.27;2.27;;;;;;;;;;5135535;27;20451;-70
2023/09/23 06:59:05;;;;;;;56.27;2.40;;;;;;;;;;5135328;27;20480;-70
2023/09/23 07:01:34;;;;;;;56.37;2.20;;;;;;;;;;5135339;27;20450;-70
2023/09/23 07:04:04;;;;;;;56.47;2.30;;;;;;;;;;5135783;27;20888;-70
2023/09/23 07:06:31;;;;;;;56.17;2.00;;;;;;;;;;5135515;27;20517;-70
2023/09/23 07:08:58;;;;;;;57.43;3.23;;;;;;;;;;5135187;27;20468;-70
2023/09/23 07:11:25;;;;;;;56.33;2.07;;;;;;;;;;5135286;27;20441;-70
2023/09/23 07:13:52;;;;;;;56.20;2.00;;;;;;;;;;5135239;27;20543;-69
2023/09/23 07:16:19;;;;;;;56.17;2.20;;;;;;;;;;5135589;27;20444;-70
2023/09/23 07:18:46;;;;;;;56.50;2.20;;;;;;;;;;5135199;27;20456;-70
2023/09/23 07:21:15;;;;;;;56.33;2.20;;;;;;;;;;5135367;27;20531;-71
2023/09/23 07:23:42;;;;;;;56.07;2.20;;;;;;;;;;5134981;27;20969;-71
2023/09/23 07:26:09;;;;;;;56.07;1.93;;;;;;;;;;5135161;27;20451;-71
2023/09/23 07:28:36;;;;;;;56.27;2.10;;;;;;;;;;5134642;27;20468;-70
2023/09/23 07:31:03;;;;;;;56.10;1.83;;;;;;;;;;5135242;27;20444;-70
2023/09/23 07:33:30;;;;;;;56.03;2.07;;;;;;;;;;5134957;27;20448;-71
2023/09/23 07:35:57;;;;;;;56.17;2.00;;;;;;;;;;5135050;27;20543;-71
2023/09/23 07:38:26;;;;;;;56.13;2.00;;;;;;;;;;5134422;27;20473;-71
2023/09/23 07:40:54;;;;;;;56.20;1.90;;;;;;;;;;5134738;27;20530;-70
2023/09/23 07:43:21;;;;;;;56.50;2.10;;;;;;;;;;5134673;27;20883;-71
2023/09/23 07:45:52;;;;;;;56.27;2.10;;;;;;;;;;5135058;27;20444;-71
2023/09/23 07:48:19;;;;;;;56.17;1.93;;;;;;;;;;5134596;27;20468;-71
2023/09/23 07:50:46;;;;;;;56.20;2.10;;;;;;;;;;5134582;27;20444;-71
2023/09/23 07:53:13;;;;;;;56.27;2.20;;;;;;;;;;5134574;27;20452;-71
2023/09/23 07:55:43;;;;;;;55.87;1.93;;;;;;;;;;5134385;27;20447;-71
2023/09/23 07:58:10;;;;;;;56.20;2.20;;;;;;;;;;5134636;27;20468;-70
2023/09/23 08:00:37;;;;;;;56.17;2.13;;;;;;;;;;5134264;27;20492;-70
2023/09/23 08:03:04;;;;;;;56.20;2.10;;;;;;;;;;5134562;27;20537;-71
2023/09/23 08:05:32;;;;;;;56.30;2.03;;;;;;;;;;5132847;27;20487;-71
2023/09/23 08:07:59;;;;;;;57.57;2.20;;;;;;;;;;5133974;27;20468;-71
2023/09/23 08:10:26;;;;;;;56.40;2.10;;;;;;;;;;5134375;27;20449;-71
2023/09/23 08:12:54;;;;;;;56.33;2.17;;;;;;;;;;5134341;27;20451;-71
2023/09/23 08:15:21;;;;;;;56.40;2.10;;;;;;;;;;5134341;27;20557;-71
2023/09/23 08:17:49;;;;;;;56.20;1.90;;;;;;;;;;5133798;27;20469;-70
2023/09/23 08:20:19;;;;;;;56.20;2.00;;;;;;;;;;5134128;27;21005;-71
2023/09/23 08:22:47;;;;;;;56.30;2.10;;;;;;;;;;5134064;27;20441;-71
2023/09/23 08:25:14;;;;;;;56.30;2.30;;;;;;;;;;5134422;27;20444;-70
2023/09/23 08:27:42;;;;;;;56.37;1.90;;;;;;;;;;5134192;27;20518;-71
2023/09/23 08:30:11;;;;;;;56.37;2.10;;;;;;;;;;5134377;27;20444;-71
2023/09/23 08:32:38;;;;;;;56.30;2.07;;;;;;;;;;5134262;27;20448;-70
2023/09/23 08:35:06;;;;;;;56.37;2.10;;;;;;;;;;5133739;27;20449;-70
2023/09/23 08:37:33;;;;;;;56.37;2.50;;;;;;;;;;5133695;27;20500;-71
2023/09/23 08:40:00;;;;;;;56.27;1.93;;;;;;;;;;5133744;27;20476;-71
2023/09/23 08:42:28;;;;;;;56.27;1.90;;;;;;;;;;5133723;27;20808;-71
2023/09/23 08:44:55;;;;;;;58.77;2.70;;;;;;;;;;5133612;27;20497;-71
2023/09/23 08:47:24;;;;;;;56.30;2.00;;;;;;;;;;5133441;27;20475;-70
2023/09/23 08:49:52;;;;;;;56.13;2.00;;;;;;;;;;5133143;27;20451;-71
2023/09/23 08:52:19;;;;;;;56.27;2.43;;;;;;;;;;5133968;27;20445;-71
2023/09/23 08:54:48;;;;;;;56.50;2.50;;;;;;;;;;5133458;27;20445;-70
2023/09/23 08:57:16;;;;;;;56.80;3.37;;;;;;;;;;5133231;27;20461;-71
2023/09/23 08:59:43;;;;;;;56.30;2.00;;;;;;;;;;5132991;27;20512;-70
2023/09/23 09:02:12;;;;;;;56.27;1.93;;;;;;;;;;5133266;27;20448;-71
2023/09/23 09:04:40;;;;;;;56.33;2.17;;;;;;;;;;5133334;27;20448;-71
2023/09/23 09:07:07;;;;;;;57.57;2.20;;;;;;;;;;5132949;27;20467;-71
2023/09/23 09:09:34;;;;;;;56.13;1.90;;;;;;;;;;5132916;27;20437;-71
2023/09/23 09:12:02;;;;;;;56.17;2.00;;;;;;;;;;5133118;27;20808;-70
2023/09/23 09:14:29;;;;;;;56.17;1.97;;;;;;;;;;5133168;27;20456;-70
2023/09/23 09:16:56;;;;;;;56.20;2.00;;;;;;;;;;5132196;27;20467;-71
2023/09/23 09:19:23;;;;;;;56.17;2.00;;;;;;;;;;5132927;27;20784;-71
2023/09/23 09:21:53;;;;;;;55.93;1.90;;;;;;;;;;5132902;27;20779;-71
2023/09/23 09:24:22;;;;;;;56.37;2.10;;;;;;;;;;5132938;27;20492;-71
2023/09/23 09:26:50;;;;;;;56.50;2.10;;;;;;;;;;5132692;27;20475;-70
2023/09/23 09:29:17;;;;;;;56.40;2.10;;;;;;;;;;5132491;27;20445;-70
2023/09/23 09:31:46;;;;;;;56.30;2.30;;;;;;;;;;5132796;27;20460;-69
2023/09/23 09:34:14;;;;;;;56.07;2.03;;;;;;;;;;5132544;27;20441;-69
2023/09/23 09:36:41;;;;;;;56.30;2.23;;;;;;;;;;5132395;27;20451;-68
2023/09/23 09:39:13;;;;;;;56.43;2.20;;;;;;;;;;5132427;27;20536;-70
2023/09/23 09:41:46;;;;;;;56.70;2.20;;;;;;;;;;5132337;27;20476;-70
2023/09/23 09:44:15;;;;;;;56.10;2.10;;;;;;;;;;5132446;27;20459;-70
2023/09/23 09:46:43;;;;;;;56.40;2.07;;;;;;;;;;5132331;27;20481;-71
2023/09/23 09:49:11;;;;;;;56.27;2.00;;;;;;;;;;5132348;27;20456;-70
2023/09/23 09:51:40;;;;;;;56.20;2.00;;;;;;;;;;5132475;27;20452;-70
2023/09/23 09:54:09;;;;;;;55.97;1.70;;;;;;;;;;5132195;27;20432;-71
2023/09/23 09:56:38;;;;;;;55.87;1.80;;;;;;;;;;5131710;27;20448;-71
2023/09/23 09:59:06;;;;;;;56.07;1.70;;;;;;;;;;5132272;27;20853;-71
2023/09/23 10:01:35;;;;;;;55.77;1.80;;;;;;;;;;5132063;27;20480;-70
2023/09/23 10:04:02;;;;;;;55.70;1.70;;;;;;;;;;5132125;27;20449;-71
2023/09/23 10:06:29;;;;;;;55.77;1.57;;;;;;;;;;5131706;27;20539;-71
2023/09/23 10:08:58;;;;;;;55.73;1.63;;;;;;;;;;5132018;27;20952;-70
2023/09/23 10:11:34;;;;;;;55.87;1.70;;;;;;;;;;5132133;27;20441;-70
2023/09/23 10:14:16;;;;;;;55.53;1.50;;;;;;;;;;5131933;27;20998;-70
2023/09/23 10:16:49;;;;;;;55.37;1.50;;;;;;;;;;5131694;27;20818;-71
2023/09/23 10:19:19;;;;;;;56.00;1.70;;;;;;;;;;5131843;27;20502;-71
2023/09/23 10:21:47;;;;;;;55.63;1.60;;;;;;;;;;5131748;27;20584;-70
2023/09/23 10:24:20;;;;;;;56.30;1.70;;;;;;;;;;5131498;27;20480;-71
2023/09/23 10:26:47;;;;;;;55.57;1.60;;;;;;;;;;5131460;27;20497;-71
2023/09/23 10:29:16;;;;;;;55.83;1.60;;;;;;;;;;5130732;27;20483;-70
2023/09/23 10:31:44;;;;;;;56.20;2.00;;;;;;;;;;5131640;27;20440;-70
2023/09/23 10:34:14;;;;;;;56.00;1.70;;;;;;;;;;5131382;27;20449;-70
2023/09/23 10:36:41;;;;;;;55.73;1.93;;;;;;;;;;5131539;27;20456;-68
2023/09/23 10:39:16;;;;;;;55.67;1.83;;;;;;;;;;5131810;27;20441;-70
2023/09/23 10:41:43;;;;;;;55.67;1.80;;;;;;;;;;5131734;27;20483;-70
2023/09/23 10:44:10;;;;;;;55.90;1.80;;;;;;;;;;5131930;27;20455;-70
2023/09/23 10:46:39;;;;;;;55.60;1.60;;;;;;;;;;5131242;27;20447;-69
2023/09/23 10:49:07;;;;;;;57.37;3.07;;;;;;;;;;5131760;27;20521;-70
2023/09/23 10:51:34;;;;;;;55.67;1.57;;;;;;;;;;5131550;27;20560;-70
2023/09/23 10:54:01;;;;;;;56.30;1.70;;;;;;;;;;5131669;27;20993;-70
2023/09/23 10:56:29;;;;;;;55.00;1.70;;;;;;;;;;5131343;27;20452;-70
2023/09/23 10:58:56;;;;;;;55.33;1.60;;;;;;;;;;5131321;27;20460;-70
2023/09/23 11:01:24;;;;;;;56.10;1.70;;;;;;;;;;5131293;27;20477;-70
2023/09/23 11:03:54;;;;;;;56.17;2.00;;;;;;;;;;5129766;27;20455;-70
2023/09/23 11:06:21;;;;;;;56.10;1.90;;;;;;;;;;5130793;27;20857;-70
2023/09/23 11:08:50;;;;;;;55.90;1.80;;;;;;;;;;5130576;27;20971;-69
2023/09/23 11:11:18;;;;;;;55.77;1.60;;;;;;;;;;5131323;27;20448;-71
2023/09/23 11:13:45;;;;;;;56.80;1.70;;;;;;;;;;5131867;27;20445;-70
2023/09/23 11:16:13;;;;;;;55.63;1.60;;;;;;;;;;5131390;27;20936;-71
2023/09/23 11:18:40;;;;;;;55.37;1.67;;;;;;;;;;5131084;27;20486;-71
2023/09/23 11:21:08;;;;;;;55.40;1.73;;;;;;;;;;5131606;27;20477;-71
2023/09/23 11:23:36;;;;;;;55.30;1.60;;;;;;;;;;5131173;27;20924;-71
2023/09/23 11:26:03;;;;;;;55.17;1.47;;;;;;;;;;5131200;27;20441;-70
2023/09/23 11:28:31;;;;;;;55.20;1.60;;;;;;;;;;5131206;27;20487;-70
2023/09/23 11:30:59;;;;;;;54.87;1.53;;;;;;;;;;5131696;27;20537;-71
2023/09/23 11:33:26;;;;;;;55.00;1.50;;;;;;;;;;5131306;27;20452;-71
2023/09/23 11:35:53;;;;;;;55.17;1.70;;;;;;;;;;5131075;27;20451;-70
2023/09/23 11:38:21;;;;;;;54.70;1.50;;;;;;;;;;5130907;27;20464;-70
2023/09/23 11:40:48;;;;;;;54.97;1.50;;;;;;;;;;5133432;27;20567;-70
2023/09/23 11:43:16;;;;;;;55.00;1.40;;;;;;;;;;5134714;27;20445;-70
2023/09/23 11:45:43;;;;;;;54.60;1.40;;;;;;;;;;5134733;27;20480;-71
2023/09/23 11:48:10;;;;;;;54.47;1.70;;;;;;;;;;5134491;27;20471;-70
2023/09/23 11:50:38;;;;;;;54.90;1.50;;;;;;;;;;5134721;27;20448;-70
2023/09/23 11:53:05;;;;;;;55.07;1.50;;;;;;;;;;5134702;27;20924;-71
2023/09/23 11:55:33;;;;;;;55.40;1.80;;;;;;;;;;5134396;27;20973;-70
2023/09/23 11:58:01;;;;;;;54.97;1.40;;;;;;;;;;5134225;27;20979;-70
2023/09/23 12:00:28;;;;;;;55.30;1.43;;;;;;;;;;5134682;27;20516;-70
2023/09/23 12:02:55;;;;;;;55.43;1.60;;;;;;;;;;5134386;27;20444;-70
2023/09/23 12:05:28;;;;;;;55.53;1.57;;;;;;;;;;5134450;27;20445;-70
2023/09/23 12:07:58;;;;;;;55.73;1.80;;;;;;;;;;5134131;27;20464;-70
2023/09/23 12:10:25;;;;;;;55.90;1.70;;;;;;;;;;5134524;27;20626;-70
2023/09/23 12:12:56;;;;;;;55.40;1.63;;;;;;;;;;5134472;27;20445;-69
2023/09/23 12:15:23;;;;;;;55.57;1.70;;;;;;;;;;5134187;27;20536;-70
2023/09/23 12:17:50;;;;;;;56.07;2.23;;;;;;;;;;5133691;27;20463;-69
2023/09/23 12:20:18;;;;;;;56.50;1.70;;;;;;;;;;5133827;27;20869;-70
2023/09/23 12:22:45;;;;;;;55.90;2.07;;;;;;;;;;5140361;27;20448;-70
2023/09/23 12:25:14;;;;;;;55.67;1.80;;;;;;;;;;5147467;27;20453;-69
2023/09/23 12:27:41;;;;;;;55.77;1.80;;;;;;;;;;5147599;27;20468;-70
2023/09/23 12:30:10;;;;;;;56.33;1.90;;;;;;;;;;5146598;27;20516;-70
2023/09/23 12:32:37;;;;;;;56.40;1.90;;;;;;;;;;5148135;27;20579;-70
2023/09/23 12:35:04;;;;;;;56.37;2.00;;;;;;;;;;5147955;27;20528;-70
2023/09/23 12:37:31;;;;;;;56.20;2.00;;;;;;;;;;5147960;27;20476;-70
2023/09/23 12:39:59;;;;;;;56.37;1.80;;;;;;;;;;5147302;27;20448;-70
2023/09/23 12:42:26;;;;;;;56.20;2.10;;;;;;;;;;5147960;27;20792;-70
2023/09/23 12:44:53;;;;;;;56.43;2.10;;;;;;;;;;5148100;27;20944;-69
2023/09/23 12:47:21;;;;;;;56.90;2.10;;;;;;;;;;5148052;27;20827;-70
2023/09/23 12:49:49;;;;;;;56.37;2.00;;;;;;;;;;5147398;27;20955;-70
2023/09/23 12:52:16;;;;;;;56.70;2.30;;;;;;;;;;5147552;27;20448;-70
2023/09/23 12:54:43;;;;;;;56.57;1.87;;;;;;;;;;5148400;27;20448;-69
2023/09/23 12:57:10;;;;;;;56.27;2.00;;;;;;;;;;5148424;27;20474;-70
2023/09/23 12:59:37;;;;;;;56.43;2.10;;;;;;;;;;5148439;27;20464;-70
2023/09/23 13:02:04;;;;;;;56.37;1.80;;;;;;;;;;5147676;27;20473;-70
2023/09/23 13:04:33;;;;;;;56.67;1.83;;;;;;;;;;5148100;27;20444;-70
2023/09/23 13:07:00;;;;;;;56.30;1.90;;;;;;;;;;5148262;27;20452;-70
2023/09/23 13:09:27;;;;;;;56.70;2.00;;;;;;;;;;5148388;27;20444;-70
2023/09/23 13:11:54;;;;;;;56.27;2.00;;;;;;;;;;5144470;27;20453;-70
2023/09/23 13:14:22;;;;;;;56.47;2.20;;;;;;;;;;5135384;27;20449;-70
2023/09/23 13:16:49;;;;;;;56.17;2.00;;;;;;;;;;5142537;27;20557;-70
2023/09/23 13:19:16;;;;;;;56.27;2.00;;;;;;;;;;5146952;27;20455;-70
2023/09/23 13:21:44;;;;;;;56.60;2.27;;;;;;;;;;5147971;27;20481;-70
2023/09/23 13:24:11;;;;;;;56.33;2.00;;;;;;;;;;5140959;27;20540;-70
2023/09/23 13:26:38;;;;;;;56.23;2.03;;;;;;;;;;5134001;27;20448;-70
2023/09/23 13:29:05;;;;;;;57.07;2.10;;;;;;;;;;5124602;27;20451;-69
2023/09/23 13:31:33;;;;;;;56.30;2.00;;;;;;;;;;5133257;27;20444;-70
2023/09/23 13:34:00;;;;;;;56.47;2.07;;;;;;;;;;5132995;27;20537;-70
2023/09/23 13:36:27;;;;;;;55.87;1.80;;;;;;;;;;5133164;27;20451;-71
2023/09/23 13:38:55;;;;;;;55.67;1.70;;;;;;;;;;5132613;27;20471;-70
2023/09/23 13:41:22;;;;;;;55.40;1.70;;;;;;;;;;5132655;27;20472;-71
2023/09/23 13:43:50;;;;;;;55.70;1.50;;;;;;;;;;5132626;27;20470;-71
2023/09/23 13:46:17;;;;;;;55.67;1.50;;;;;;;;;;5132675;27;20451;-71
2023/09/23 13:48:44;;;;;;;55.83;1.70;;;;;;;;;;5132578;27;20471;-71
2023/09/23 13:51:11;;;;;;;55.47;1.70;;;;;;;;;;5132330;27;20451;-70
2023/09/23 13:53:38;;;;;;;55.57;1.60;;;;;;;;;;5132615;27;20877;-69
2023/09/23 13:56:06;;;;;;;55.57;1.47;;;;;;;;;;5132294;27;20441;-70
2023/09/23 13:58:34;;;;;;;55.13;1.50;;;;;;;;;;5132299;27;20464;-70
2023/09/23 14:01:01;;;;;;;55.70;1.57;;;;;;;;;;5132077;27;20440;-69
2023/09/23 14:03:28;;;;;;;55.37;1.40;;;;;;;;;;5132581;27;20445;-70
2023/09/23 14:05:55;;;;;;;55.70;1.80;;;;;;;;;;5132126;27;20441;-70
2023/09/23 14:08:22;;;;;;;55.27;1.40;;;;;;;;;;5132349;27;20460;-70
2023/09/23 14:10:49;;;;;;;55.07;1.50;;;;;;;;;;5131923;27;20445;-69
2023/09/23 14:13:19;;;;;;;55.70;1.60;;;;;;;;;;5132076;27;20925;-69
2023/09/23 14:15:46;;;;;;;56.20;1.60;;;;;;;;;;5131948;27;20503;-70
2023/09/23 14:18:13;;;;;;;55.60;1.60;;;;;;;;;;5131842;27;20475;-70
2023/09/23 14:20:43;;;;;;;55.70;1.60;;;;;;;;;;5132139;27;20767;-70
2023/09/23 14:23:11;;;;;;;55.57;1.60;;;;;;;;;;5131872;27;20477;-70
2023/09/23 14:25:38;;;;;;;55.80;1.50;;;;;;;;;;5132133;27;20449;-70
2023/09/23 14:28:05;;;;;;;55.57;1.70;;;;;;;;;;5131639;27;20460;-71
2023/09/23 14:30:33;;;;;;;55.70;1.70;;;;;;;;;;5131443;27;20440;-70
2023/09/23 14:33:00;;;;;;;55.47;1.70;;;;;;;;;;5131825;27;20793;-70
2023/09/23 14:35:28;;;;;;;56.00;1.90;;;;;;;;;;5131416;27;20455;-71